sensor_id;sensor_type;location;lat;lon;timestamp;pressure;altitude;pressure_sealevel;temperature;humidity
1401;BME280;46518;48.842;8.926;2023-02-17T00:01:26;97923.53;;;8.61;60.56
1401;BME280;46518;48.842;8.926;2023-02-17T00:03:54;97923.75;;;8.53;61.34
1401;BME280;46518;48.842;8.926;2023-02-17T00:06:26;97952.72;;;8.72;61.59
1401;BME280;46518;48.842;8.926;2023-02-17T00:08:54;97962.78;;;8.75;60.51
1401;BME280;46518;48.842;8.926;2023-02-17T00:11:23;97934.38;;;8.65;60.95
1401;BME280;46518;48.842;8.926;2023-02-17T00:13:52;97953.06;;;8.82;60.69
1401;BME280;46518;48.842;8.926;2023-02-17T00:16:24;97941.47;;;8.64;61.56
1401;BME280;46518;48.842;8.926;2023-02-17T00:18:54;97953.16;;;8.69;61.57
1401;BME280;46518;48.842;8.926;2023-02-17T00:21:25;97949.03;;;8.79;61.48
1401;BME280;46518;48.842;8.926;2023-02-17T00:23:56;97947.16;;;8.61;61.67
1401;BME280;46518;48.842;8.926;2023-02-17T00:26:24;97919.34;;;8.54;61.05
1401;BME280;46518;48.842;8.926;2023-02-17T00:28:52;97952.16;;;8.63;61.73
1401;BME280;46518;48.842;8.926;2023-02-17T00:31:22;97951.19;;;8.57;61.95
1401;BME280;46518;48.842;8.926;2023-02-17T00:33:53;97941.13;;;8.54;61.80
1401;BME280;46518;48.842;8.926;2023-02-17T00:36:21;97935.09;;;8.54;61.03
1401;BME280;46518;48.842;8.926;2023-02-17T00:38:53;97940.59;;;8.39;62.84
1401;BME280;46518;48.842;8.926;2023-02-17T00:41:23;97922.44;;;8.37;62.10
1401;BME280;46518;48.842;8.926;2023-02-17T00:43:51;97930.13;;;8.32;62.01
1401;BME280;46518;48.842;8.926;2023-02-17T00:46:21;97933.63;;;8.19;63.48
1401;BME280;46518;48.842;8.926;2023-02-17T00:48:51;97925.91;;;8.31;61.98
1401;BME280;46518;48.842;8.926;2023-02-17T00:51:20;97933.31;;;8.41;61.92
1401;BME280;46518;48.842;8.926;2023-02-17T00:53:48;97932.72;;;8.39;61.80
1401;BME280;46518;48.842;8.926;2023-02-17T00:56:18;97921.06;;;8.28;62.55
1401;BME280;46518;48.842;8.926;2023-02-17T00:58:47;97920.06;;;8.29;62.28
1401;BME280;46518;48.842;8.926;2023-02-17T01:01:15;97910.78;;;8.27;61.56
1401;BME280;46518;48.842;8.926;2023-02-17T01:03:43;97955.72;;;8.37;62.28
1401;BME280;46518;48.842;8.926;2023-02-17T01:06:19;97920.44;;;8.33;61.69
1401;BME280;46518;48.842;8.926;2023-02-17T01:08:48;97917.81;;;8.33;62.13
1401;BME280;46518;48.842;8.926;2023-02-17T01:11:18;97918.41;;;8.35;62.27
1401;BME280;46518;48.842;8.926;2023-02-17T01:13:46;97946.63;;;8.78;61.72
1401;BME280;46518;48.842;8.926;2023-02-17T01:16:16;97929.47;;;8.43;61.60
1401;BME280;46518;48.842;8.926;2023-02-17T01:18:45;97911.59;;;8.27;62.54
1401;BME280;46518;48.842;8.926;2023-02-17T01:21:17;97905.75;;;8.25;61.89
1401;BME280;46518;48.842;8.926;2023-02-17T01:23:47;97920.59;;;8.45;61.88
1401;BME280;46518;48.842;8.926;2023-02-17T01:26:19;97923.44;;;8.43;62.28
1401;BME280;46518;48.842;8.926;2023-02-17T01:28:48;97923.75;;;8.53;61.99
1401;BME280;46518;48.842;8.926;2023-02-17T01:31:17;97926.16;;;8.61;62.36
1401;BME280;46518;48.842;8.926;2023-02-17T01:33:45;97931.41;;;8.61;61.20
1401;BME280;46518;48.842;8.926;2023-02-17T01:36:15;97924.91;;;8.64;61.11
1401;BME280;46518;48.842;8.926;2023-02-17T01:38:43;97914.72;;;8.49;61.75
1401;BME280;46518;48.842;8.926;2023-02-17T01:41:14;97918.59;;;8.40;62.35
1401;BME280;46518;48.842;8.926;2023-02-17T01:44:10;97918.78;;;8.38;61.88
1401;BME280;46518;48.842;8.926;2023-02-17T01:46:40;97917.19;;;8.44;62.75
1401;BME280;46518;48.842;8.926;2023-02-17T01:49:29;97914.56;;;8.37;62.94
1401;BME280;46518;48.842;8.926;2023-02-17T01:52:02;97907.09;;;8.41;62.81
1401;BME280;46518;48.842;8.926;2023-02-17T01:54:36;97909.13;;;8.39;62.95
1401;BME280;46518;48.842;8.926;2023-02-17T01:57:08;97914.94;;;8.41;62.82
1401;BME280;46518;48.842;8.926;2023-02-17T01:59:39;97911.50;;;8.47;62.57
1401;BME280;46518;48.842;8.926;2023-02-17T02:02:08;97907.31;;;8.39;62.96
1401;BME280;46518;48.842;8.926;2023-02-17T02:04:38;97904.63;;;8.46;62.19
1401;BME280;46518;48.842;8.926;2023-02-17T02:07:12;97894.81;;;8.35;62.94
1401;BME280;46518;48.842;8.926;2023-02-17T02:09:45;97905.72;;;8.32;63.27
1401;BME280;46518;48.842;8.926;2023-02-17T02:12:17;97896.47;;;8.29;62.86
1401;BME280;46518;48.842;8.926;2023-02-17T02:14:48;97890.97;;;8.31;63.12
1401;BME280;46518;48.842;8.926;2023-02-17T02:17:25;97891.38;;;8.34;63.65
1401;BME280;46518;48.842;8.926;2023-02-17T02:20:21;97893.41;;;8.32;63.48
1401;BME280;46518;48.842;8.926;2023-02-17T02:23:10;97895.75;;;8.47;62.89
1401;BME280;46518;48.842;8.926;2023-02-17T02:26:02;97885.06;;;8.49;62.61
1401;BME280;46518;48.842;8.926;2023-02-17T02:28:49;97877.03;;;8.37;63.08
1401;BME280;46518;48.842;8.926;2023-02-17T02:31:28;97876.81;;;8.38;62.97
1401;BME280;46518;48.842;8.926;2023-02-17T02:34:08;97889.91;;;8.45;62.71
1401;BME280;46518;48.842;8.926;2023-02-17T02:36:40;97888.22;;;8.57;62.25
1401;BME280;46518;48.842;8.926;2023-02-17T02:39:13;97887.19;;;8.83;62.33
1401;BME280;46518;48.842;8.926;2023-02-17T02:41:45;97887.13;;;8.72;61.07
1401;BME280;46518;48.842;8.926;2023-02-17T02:44:17;97880.41;;;8.76;61.60
1401;BME280;46518;48.842;8.926;2023-02-17T02:46:55;97882.97;;;8.57;61.51
1401;BME280;46518;48.842;8.926;2023-02-17T02:49:25;97868.41;;;8.61;61.25
1401;BME280;46518;48.842;8.926;2023-02-17T02:52:01;97869.66;;;8.59;62.32
1401;BME280;46518;48.842;8.926;2023-02-17T02:54:42;97874.19;;;8.70;61.14
1401;BME280;46518;48.842;8.926;2023-02-17T02:57:23;97864.50;;;8.71;61.53
1401;BME280;46518;48.842;8.926;2023-02-17T03:00:07;97861.88;;;8.71;62.24
1401;BME280;46518;48.842;8.926;2023-02-17T03:02:44;97860.28;;;8.70;61.89
1401;BME280;46518;48.842;8.926;2023-02-17T03:05:27;97853.00;;;8.72;62.05
1401;BME280;46518;48.842;8.926;2023-02-17T03:08:00;97842.53;;;8.65;61.91
1401;BME280;46518;48.842;8.926;2023-02-17T03:10:30;97850.09;;;8.80;61.73
1401;BME280;46518;48.842;8.926;2023-02-17T03:13:00;97841.13;;;8.88;62.24
1401;BME280;46518;48.842;8.926;2023-02-17T03:15:31;97844.16;;;9.10;61.43
1401;BME280;46518;48.842;8.926;2023-02-17T03:18:01;97849.50;;;9.21;60.55
1401;BME280;46518;48.842;8.926;2023-02-17T03:20:33;97849.28;;;9.23;60.35
1401;BME280;46518;48.842;8.926;2023-02-17T03:23:03;97854.53;;;9.23;59.88
1401;BME280;46518;48.842;8.926;2023-02-17T03:25:32;97858.28;;;9.34;59.91
1401;BME280;46518;48.842;8.926;2023-02-17T03:28:00;97858.19;;;9.40;59.34
1401;BME280;46518;48.842;8.926;2023-02-17T03:30:28;97857.81;;;9.55;59.22
1401;BME280;46518;48.842;8.926;2023-02-17T03:32:56;97864.09;;;9.36;60.01
1401;BME280;46518;48.842;8.926;2023-02-17T03:35:24;97858.63;;;9.19;60.70
1401;BME280;46518;48.842;8.926;2023-02-17T03:37:54;97851.16;;;8.97;62.00
1401;BME280;46518;48.842;8.926;2023-02-17T03:40:22;97841.34;;;8.86;62.33
1401;BME280;46518;48.842;8.926;2023-02-17T03:42:50;97857.81;;;8.75;63.60
1401;BME280;46518;48.842;8.926;2023-02-17T03:45:18;97859.84;;;8.48;64.86
1401;BME280;46518;48.842;8.926;2023-02-17T03:47:46;97859.41;;;8.51;65.79
1401;BME280;46518;48.842;8.926;2023-02-17T03:50:14;97857.94;;;8.61;65.93
1401;BME280;46518;48.842;8.926;2023-02-17T03:52:43;97855.34;;;8.55;66.02
1401;BME280;46518;48.842;8.926;2023-02-17T03:55:13;97863.81;;;8.57;66.64
1401;BME280;46518;48.842;8.926;2023-02-17T03:57:41;97854.72;;;8.59;66.17
1401;BME280;46518;48.842;8.926;2023-02-17T04:00:09;97870.03;;;8.62;66.84
1401;BME280;46518;48.842;8.926;2023-02-17T04:02:40;97862.78;;;8.83;66.87
1401;BME280;46518;48.842;8.926;2023-02-17T04:05:10;97873.09;;;9.03;66.37
1401;BME280;46518;48.842;8.926;2023-02-17T04:07:38;97878.44;;;8.96;66.75
1401;BME280;46518;48.842;8.926;2023-02-17T04:10:07;97881.91;;;8.90;67.65
1401;BME280;46518;48.842;8.926;2023-02-17T04:12:37;97881.91;;;8.90;68.45
1401;BME280;46518;48.842;8.926;2023-02-17T04:15:05;97878.91;;;8.87;67.38
1401;BME280;46518;48.842;8.926;2023-02-17T04:17:35;97873.34;;;9.01;67.21
1401;BME280;46518;48.842;8.926;2023-02-17T04:20:04;97877.13;;;9.05;67.71
1401;BME280;46518;48.842;8.926;2023-02-17T04:22:32;97871.06;;;9.05;68.41
1401;BME280;46518;48.842;8.926;2023-02-17T04:25:01;97869.63;;;9.09;69.12
1401;BME280;46518;48.842;8.926;2023-02-17T04:27:29;97868.84;;;9.27;68.94
1401;BME280;46518;48.842;8.926;2023-02-17T04:29:58;97865.63;;;9.43;68.57
1401;BME280;46518;48.842;8.926;2023-02-17T04:32:26;97865.47;;;9.20;69.00
1401;BME280;46518;48.842;8.926;2023-02-17T04:34:54;97850.91;;;9.24;68.40
1401;BME280;46518;48.842;8.926;2023-02-17T04:37:22;97845.50;;;9.19;69.12
1401;BME280;46518;48.842;8.926;2023-02-17T04:39:50;97841.34;;;9.11;69.40
1401;BME280;46518;48.842;8.926;2023-02-17T04:42:18;97851.53;;;9.19;70.54
1401;BME280;46518;48.842;8.926;2023-02-17T04:44:46;97851.41;;;9.33;70.82
1401;BME280;46518;48.842;8.926;2023-02-17T04:47:16;97842.50;;;9.34;70.29
1401;BME280;46518;48.842;8.926;2023-02-17T04:49:44;97843.75;;;9.49;68.92
1401;BME280;46518;48.842;8.926;2023-02-17T04:52:12;97847.19;;;9.32;68.71
1401;BME280;46518;48.842;8.926;2023-02-17T04:54:40;97840.97;;;9.44;69.27
1401;BME280;46518;48.842;8.926;2023-02-17T04:57:08;97834.34;;;9.42;70.00
1401;BME280;46518;48.842;8.926;2023-02-17T04:59:36;97846.88;;;9.40;70.37
1401;BME280;46518;48.842;8.926;2023-02-17T05:02:04;97837.03;;;9.54;68.88
1401;BME280;46518;48.842;8.926;2023-02-17T05:04:35;97839.44;;;9.55;69.82
1401;BME280;46518;48.842;8.926;2023-02-17T05:07:03;97836.66;;;9.32;71.27
1401;BME280;46518;48.842;8.926;2023-02-17T05:09:32;97828.47;;;9.58;70.68
1401;BME280;46518;48.842;8.926;2023-02-17T05:12:00;97833.22;;;9.49;70.76
1401;BME280;46518;48.842;8.926;2023-02-17T05:14:28;97832.91;;;9.58;70.98
1401;BME280;46518;48.842;8.926;2023-02-17T05:16:57;97837.53;;;9.62;70.39
1401;BME280;46518;48.842;8.926;2023-02-17T05:19:25;97833.94;;;9.38;71.93
1401;BME280;46518;48.842;8.926;2023-02-17T05:21:54;97836.13;;;9.60;70.98
1401;BME280;46518;48.842;8.926;2023-02-17T05:24:22;97843.66;;;9.56;70.96
1401;BME280;46518;48.842;8.926;2023-02-17T05:26:50;97845.34;;;9.50;72.03
1401;BME280;46518;48.842;8.926;2023-02-17T05:29:18;97853.28;;;9.62;71.36
1401;BME280;46518;48.842;8.926;2023-02-17T05:31:46;97854.25;;;9.49;72.16
1401;BME280;46518;48.842;8.926;2023-02-17T05:34:14;97860.50;;;9.67;71.46
1401;BME280;46518;48.842;8.926;2023-02-17T05:36:43;97859.72;;;9.48;72.60
1401;BME280;46518;48.842;8.926;2023-02-17T05:39:12;97859.72;;;9.48;72.31
1401;BME280;46518;48.842;8.926;2023-02-17T05:41:40;97850.97;;;9.54;72.05
1401;BME280;46518;48.842;8.926;2023-02-17T05:44:08;97856.50;;;9.64;71.74
1401;BME280;46518;48.842;8.926;2023-02-17T05:46:36;97841.84;;;9.57;72.33
1401;BME280;46518;48.842;8.926;2023-02-17T05:49:05;97854.88;;;9.63;72.17
1401;BME280;46518;48.842;8.926;2023-02-17T05:51:33;97859.72;;;9.66;71.77
1401;BME280;46518;48.842;8.926;2023-02-17T05:54:01;97857.69;;;9.50;72.35
1401;BME280;46518;48.842;8.926;2023-02-17T05:56:30;97858.91;;;9.66;72.63
1401;BME280;46518;48.842;8.926;2023-02-17T05:58:59;97863.88;;;9.74;72.33
1401;BME280;46518;48.842;8.926;2023-02-17T06:01:27;97869.56;;;9.71;72.80
1401;BME280;46518;48.842;8.926;2023-02-17T06:03:55;97869.25;;;9.61;72.90
1401;BME280;46518;48.842;8.926;2023-02-17T06:06:23;97870.38;;;9.71;73.05
1401;BME280;46518;48.842;8.926;2023-02-17T06:08:52;97865.59;;;9.80;72.48
1401;BME280;46518;48.842;8.926;2023-02-17T06:11:20;97864.59;;;9.63;73.40
1401;BME280;46518;48.842;8.926;2023-02-17T06:13:49;97869.56;;;9.53;73.77
1401;BME280;46518;48.842;8.926;2023-02-17T06:16:17;97886.00;;;9.48;74.10
1401;BME280;46518;48.842;8.926;2023-02-17T06:18:46;97877.25;;;9.54;74.05
1401;BME280;46518;48.842;8.926;2023-02-17T06:21:13;97890.84;;;9.26;75.47
1401;BME280;46518;48.842;8.926;2023-02-17T06:23:41;97894.38;;;9.38;75.46
1401;BME280;46518;48.842;8.926;2023-02-17T06:26:09;97890.50;;;9.41;75.37
1401;BME280;46518;48.842;8.926;2023-02-17T06:28:37;97889.06;;;9.45;75.56
1401;BME280;46518;48.842;8.926;2023-02-17T06:31:07;97894.47;;;9.50;75.88
1401;BME280;46518;48.842;8.926;2023-02-17T06:33:35;97889.72;;;9.59;75.60
1401;BME280;46518;48.842;8.926;2023-02-17T06:36:04;97880.97;;;9.46;76.55
1401;BME280;46518;48.842;8.926;2023-02-17T06:38:32;97881.72;;;9.54;77.25
1401;BME280;46518;48.842;8.926;2023-02-17T06:41:01;97887.03;;;9.47;77.06
1401;BME280;46518;48.842;8.926;2023-02-17T06:43:29;97895.25;;;9.50;77.52
1401;BME280;46518;48.842;8.926;2023-02-17T06:45:57;97886.81;;;9.67;76.42
1401;BME280;46518;48.842;8.926;2023-02-17T06:48:27;97895.28;;;9.69;76.31
1401;BME280;46518;48.842;8.926;2023-02-17T06:50:55;97884.81;;;9.62;76.46
1401;BME280;46518;48.842;8.926;2023-02-17T06:53:23;97905.25;;;9.97;75.80
1401;BME280;46518;48.842;8.926;2023-02-17T06:55:51;97901.47;;;9.75;75.67
1401;BME280;46518;48.842;8.926;2023-02-17T06:58:19;97904.06;;;9.93;75.87
1401;BME280;46518;48.842;8.926;2023-02-17T07:00:47;97911.31;;;9.98;75.31
1401;BME280;46518;48.842;8.926;2023-02-17T07:03:15;97907.81;;;9.85;76.29
1401;BME280;46518;48.842;8.926;2023-02-17T07:05:44;97909.44;;;9.86;75.81
1401;BME280;46518;48.842;8.926;2023-02-17T07:08:12;97909.56;;;9.55;77.58
1401;BME280;46518;48.842;8.926;2023-02-17T07:10:40;97908.09;;;9.40;78.79
1401;BME280;46518;48.842;8.926;2023-02-17T07:13:09;97912.84;;;9.50;78.46
1401;BME280;46518;48.842;8.926;2023-02-17T07:15:37;97917.47;;;9.36;79.23
1401;BME280;46518;48.842;8.926;2023-02-17T07:18:05;97925.38;;;9.29;79.81
1401;BME280;46518;48.842;8.926;2023-02-17T07:20:33;97918.69;;;9.52;78.95
1401;BME280;46518;48.842;8.926;2023-02-17T07:23:06;97916.63;;;9.36;78.87
1401;BME280;46518;48.842;8.926;2023-02-17T07:25:34;97925.56;;;9.71;78.15
1401;BME280;46518;48.842;8.926;2023-02-17T07:28:02;97920.09;;;9.91;76.91
1401;BME280;46518;48.842;8.926;2023-02-17T07:30:30;97931.69;;;9.65;78.07
1401;BME280;46518;48.842;8.926;2023-02-17T07:32:58;97933.56;;;9.40;78.95
1401;BME280;46518;48.842;8.926;2023-02-17T07:35:26;97932.69;;;9.46;79.51
1401;BME280;46518;48.842;8.926;2023-02-17T07:37:56;97932.13;;;9.44;79.58
1401;BME280;46518;48.842;8.926;2023-02-17T07:40:26;97926.63;;;9.45;80.00
1401;BME280;46518;48.842;8.926;2023-02-17T07:42:56;97925.34;;;9.55;80.44
1401;BME280;46518;48.842;8.926;2023-02-17T07:45:24;97930.16;;;9.58;80.49
1401;BME280;46518;48.842;8.926;2023-02-17T07:47:52;97936.28;;;9.52;80.31
1401;BME280;46518;48.842;8.926;2023-02-17T07:50:20;97940.66;;;9.58;80.13
1401;BME280;46518;48.842;8.926;2023-02-17T07:52:49;97938.69;;;9.53;81.18
1401;BME280;46518;48.842;8.926;2023-02-17T07:55:17;97941.59;;;9.45;81.88
1401;BME280;46518;48.842;8.926;2023-02-17T07:57:46;97946.00;;;9.51;81.95
1401;BME280;46518;48.842;8.926;2023-02-17T08:00:16;97936.59;;;9.62;81.08
1401;BME280;46518;48.842;8.926;2023-02-17T08:02:44;97946.88;;;9.45;81.74
1401;BME280;46518;48.842;8.926;2023-02-17T08:05:12;97940.81;;;9.44;82.78
1401;BME280;46518;48.842;8.926;2023-02-17T08:07:40;97946.28;;;9.43;82.73
1401;BME280;46518;48.842;8.926;2023-02-17T08:10:10;97936.88;;;9.72;82.05
1401;BME280;46518;48.842;8.926;2023-02-17T08:12:58;97935.91;;;9.48;82.77
1401;BME280;46518;48.842;8.926;2023-02-17T08:15:43;97941.03;;;9.43;83.18
1401;BME280;46518;48.842;8.926;2023-02-17T08:18:12;97933.38;;;9.60;81.91
1401;BME280;46518;48.842;8.926;2023-02-17T08:20:40;97956.00;;;9.42;82.81
1401;BME280;46518;48.842;8.926;2023-02-17T08:23:08;97953.16;;;9.44;83.86
1401;BME280;46518;48.842;8.926;2023-02-17T08:25:36;97947.41;;;9.54;83.14
1401;BME280;46518;48.842;8.926;2023-02-17T08:28:06;97947.75;;;9.39;83.66
1401;BME280;46518;48.842;8.926;2023-02-17T08:30:34;97950.88;;;9.47;83.95
1401;BME280;46518;48.842;8.926;2023-02-17T08:33:04;97953.69;;;9.71;83.08
1401;BME280;46518;48.842;8.926;2023-02-17T08:35:32;97955.63;;;9.76;83.26
1401;BME280;46518;48.842;8.926;2023-02-17T08:38:01;97952.31;;;9.68;83.72
1401;BME280;46518;48.842;8.926;2023-02-17T08:40:29;97942.78;;;9.86;83.48
1401;BME280;46518;48.842;8.926;2023-02-17T08:42:57;97955.34;;;9.65;84.15
1401;BME280;46518;48.842;8.926;2023-02-17T08:45:30;97947.56;;;9.59;84.13
1401;BME280;46518;48.842;8.926;2023-02-17T08:47:58;97936.53;;;9.68;83.65
1401;BME280;46518;48.842;8.926;2023-02-17T08:50:26;97939.28;;;9.55;84.32
1401;BME280;46518;48.842;8.926;2023-02-17T08:52:54;97944.03;;;9.46;84.75
1401;BME280;46518;48.842;8.926;2023-02-17T08:55:22;97939.53;;;9.54;85.07
1401;BME280;46518;48.842;8.926;2023-02-17T08:57:51;97932.59;;;9.59;84.18
1401;BME280;46518;48.842;8.926;2023-02-17T09:00:20;97937.91;;;9.53;85.10
1401;BME280;46518;48.842;8.926;2023-02-17T09:02:49;97928.56;;;9.57;85.44
1401;BME280;46518;48.842;8.926;2023-02-17T09:05:18;97936.50;;;9.50;86.38
1401;BME280;46518;48.842;8.926;2023-02-17T09:07:46;97939.06;;;9.57;85.61
1401;BME280;46518;48.842;8.926;2023-02-17T09:10:14;97936.28;;;9.70;85.17
1401;BME280;46518;48.842;8.926;2023-02-17T09:12:42;97927.94;;;10.10;84.14
1401;BME280;46518;48.842;8.926;2023-02-17T09:15:11;97926.50;;;9.96;85.05
1401;BME280;46518;48.842;8.926;2023-02-17T09:17:39;97925.75;;;10.07;85.41
1401;BME280;46518;48.842;8.926;2023-02-17T09:20:10;97928.25;;;10.02;85.25
1401;BME280;46518;48.842;8.926;2023-02-17T09:22:51;97916.16;;;10.12;85.68
1401;BME280;46518;48.842;8.926;2023-02-17T09:25:19;97916.09;;;10.19;84.29
1401;BME280;46518;48.842;8.926;2023-02-17T09:27:48;97910.25;;;10.17;85.09
1401;BME280;46518;48.842;8.926;2023-02-17T09:30:16;97913.94;;;10.46;85.11
1401;BME280;46518;48.842;8.926;2023-02-17T09:32:44;97924.97;;;10.67;83.80
1401;BME280;46518;48.842;8.926;2023-02-17T09:35:15;97948.84;;;10.84;83.54
1401;BME280;46518;48.842;8.926;2023-02-17T09:37:44;97943.56;;;10.84;82.67
1401;BME280;46518;48.842;8.926;2023-02-17T09:40:17;97954.34;;;11.17;82.93
1401;BME280;46518;48.842;8.926;2023-02-17T09:42:46;97960.09;;;11.38;81.34
1401;BME280;46518;48.842;8.926;2023-02-17T09:45:18;97950.59;;;11.49;81.43
1401;BME280;46518;48.842;8.926;2023-02-17T09:47:50;97961.72;;;11.39;82.15
1401;BME280;46518;48.842;8.926;2023-02-17T09:50:25;97956.09;;;11.35;81.70
1401;BME280;46518;48.842;8.926;2023-02-17T09:52:58;97959.28;;;11.26;83.35
1401;BME280;46518;48.842;8.926;2023-02-17T09:55:33;97958.59;;;11.30;82.98
1401;BME280;46518;48.842;8.926;2023-02-17T09:58:08;97978.44;;;11.33;83.83
1401;BME280;46518;48.842;8.926;2023-02-17T10:00:42;97972.47;;;11.26;83.23
1401;BME280;46518;48.842;8.926;2023-02-17T10:03:15;97976.59;;;11.21;83.07
1401;BME280;46518;48.842;8.926;2023-02-17T10:05:48;97967.69;;;11.46;82.13
1401;BME280;46518;48.842;8.926;2023-02-17T10:08:22;97971.78;;;11.65;81.28
1401;BME280;46518;48.842;8.926;2023-02-17T10:10:55;97976.13;;;11.72;81.81
1401;BME280;46518;48.842;8.926;2023-02-17T10:13:30;97973.03;;;11.98;80.91
1401;BME280;46518;48.842;8.926;2023-02-17T10:16:03;97954.00;;;11.96;81.09
1401;BME280;46518;48.842;8.926;2023-02-17T10:18:36;97966.25;;;12.02;82.22
1401;BME280;46518;48.842;8.926;2023-02-17T10:21:10;97962.91;;;12.07;80.97
1401;BME280;46518;48.842;8.926;2023-02-17T10:23:41;97960.72;;;12.16;81.58
1401;BME280;46518;48.842;8.926;2023-02-17T10:26:18;97953.31;;;12.29;80.79
1401;BME280;46518;48.842;8.926;2023-02-17T10:28:50;97955.28;;;12.22;80.13
1401;BME280;46518;48.842;8.926;2023-02-17T10:31:30;97966.97;;;12.38;79.81
1401;BME280;46518;48.842;8.926;2023-02-17T10:34:04;97968.13;;;12.30;80.51
1401;BME280;46518;48.842;8.926;2023-02-17T10:36:47;97959.06;;;12.26;80.19
1401;BME280;46518;48.842;8.926;2023-02-17T10:39:31;97968.78;;;12.38;79.63
1401;BME280;46518;48.842;8.926;2023-02-17T10:42:02;97963.28;;;12.39;80.84
1401;BME280;46518;48.842;8.926;2023-02-17T10:44:33;97959.25;;;12.37;80.55
1401;BME280;46518;48.842;8.926;2023-02-17T10:47:04;97956.91;;;12.52;80.61
1401;BME280;46518;48.842;8.926;2023-02-17T10:49:35;97965.53;;;12.47;80.07
1401;BME280;46518;48.842;8.926;2023-02-17T10:52:10;97949.16;;;12.62;80.44
1401;BME280;46518;48.842;8.926;2023-02-17T10:54:44;97951.13;;;12.55;82.10
1401;BME280;46518;48.842;8.926;2023-02-17T10:57:16;97948.44;;;12.67;81.02
1401;BME280;46518;48.842;8.926;2023-02-17T10:59:45;97942.94;;;12.85;81.80
1401;BME280;46518;48.842;8.926;2023-02-17T11:02:20;97932.53;;;12.79;80.11
1401;BME280;46518;48.842;8.926;2023-02-17T11:04:50;97936.78;;;12.80;81.67
1401;BME280;46518;48.842;8.926;2023-02-17T11:07:26;97927.19;;;12.90;79.18
1401;BME280;46518;48.842;8.926;2023-02-17T11:10:00;97934.44;;;12.66;79.60
1401;BME280;46518;48.842;8.926;2023-02-17T11:12:33;97929.16;;;12.66;80.42
1401;BME280;46518;48.842;8.926;2023-02-17T11:15:15;97933.88;;;12.64;79.44
1401;BME280;46518;48.842;8.926;2023-02-17T11:17:45;97935.72;;;12.64;80.45
1401;BME280;46518;48.842;8.926;2023-02-17T11:20:32;97923.31;;;12.64;80.86
1401;BME280;46518;48.842;8.926;2023-02-17T11:23:19;97917.63;;;12.56;81.20
1401;BME280;46518;48.842;8.926;2023-02-17T11:25:57;97918.09;;;12.52;81.01
1401;BME280;46518;48.842;8.926;2023-02-17T11:28:26;97925.63;;;12.61;80.52
1401;BME280;46518;48.842;8.926;2023-02-17T11:30:56;97913.28;;;12.49;81.53
1401;BME280;46518;48.842;8.926;2023-02-17T11:33:30;97921.56;;;12.53;80.85
1401;BME280;46518;48.842;8.926;2023-02-17T11:35:59;97914.78;;;12.45;81.16
1401;BME280;46518;48.842;8.926;2023-02-17T11:38:40;97925.56;;;12.56;81.07
1401;BME280;46518;48.842;8.926;2023-02-17T11:41:08;97918.56;;;12.49;81.46
1401;BME280;46518;48.842;8.926;2023-02-17T11:43:38;97911.44;;;12.50;81.75
1401;BME280;46518;48.842;8.926;2023-02-17T11:46:13;97904.78;;;12.47;81.60
1401;BME280;46518;48.842;8.926;2023-02-17T11:49:02;97911.91;;;12.47;81.17
1401;BME280;46518;48.842;8.926;2023-02-17T11:51:43;97920.91;;;12.46;81.24
1401;BME280;46518;48.842;8.926;2023-02-17T11:54:21;97919.19;;;12.40;81.67
1401;BME280;46518;48.842;8.926;2023-02-17T11:57:00;97907.53;;;12.52;80.64
1401;BME280;46518;48.842;8.926;2023-02-17T11:59:48;97905.75;;;12.41;81.44
1401;BME280;46518;48.842;8.926;2023-02-17T12:02:37;97916.41;;;12.46;81.52
1401;BME280;46518;48.842;8.926;2023-02-17T12:05:20;97914.91;;;12.50;81.28
1401;BME280;46518;48.842;8.926;2023-02-17T12:08:05;97913.22;;;12.61;81.24
1401;BME280;46518;48.842;8.926;2023-02-17T12:10:46;97907.88;;;12.73;80.11
1401;BME280;46518;48.842;8.926;2023-02-17T12:13:26;97902.13;;;12.76;79.06
1401;BME280;46518;48.842;8.926;2023-02-17T12:16:09;97918.06;;;12.81;80.18
1401;BME280;46518;48.842;8.926;2023-02-17T12:18:49;97915.56;;;12.91;79.41
1401;BME280;46518;48.842;8.926;2023-02-17T12:21:38;97914.13;;;12.84;79.10
1401;BME280;46518;48.842;8.926;2023-02-17T12:24:25;97926.06;;;12.86;79.50
1401;BME280;46518;48.842;8.926;2023-02-17T12:27:05;97912.84;;;12.86;78.83
1401;BME280;46518;48.842;8.926;2023-02-17T12:29:58;97924.56;;;12.90;78.69
1401;BME280;46518;48.842;8.926;2023-02-17T12:32:47;97910.59;;;12.95;78.66
1401;BME280;46518;48.842;8.926;2023-02-17T12:35:22;97907.94;;;12.95;80.09
1401;BME280;46518;48.842;8.926;2023-02-17T12:37:54;97899.88;;;13.02;79.57
1401;BME280;46518;48.842;8.926;2023-02-17T12:40:32;97897.31;;;13.07;78.82
1401;BME280;46518;48.842;8.926;2023-02-17T12:43:12;97893.44;;;13.14;79.37
1401;BME280;46518;48.842;8.926;2023-02-17T12:45:47;97893.44;;;13.14;79.14
1401;BME280;46518;48.842;8.926;2023-02-17T12:48:21;97899.06;;;13.18;78.05
1401;BME280;46518;48.842;8.926;2023-02-17T12:50:55;97900.03;;;13.12;78.16
1401;BME280;46518;48.842;8.926;2023-02-17T12:53:39;97903.53;;;13.17;78.37
1401;BME280;46518;48.842;8.926;2023-02-17T12:56:30;97907.72;;;13.13;79.12
1401;BME280;46518;48.842;8.926;2023-02-17T12:59:12;97896.59;;;13.28;78.16
1401;BME280;46518;48.842;8.926;2023-02-17T13:01:48;97892.59;;;13.09;78.88
1401;BME280;46518;48.842;8.926;2023-02-17T13:04:19;97894.97;;;13.27;79.11
1401;BME280;46518;48.842;8.926;2023-02-17T13:06:51;97899.25;;;13.28;79.08
1401;BME280;46518;48.842;8.926;2023-02-17T13:09:28;97898.88;;;13.25;78.49
1401;BME280;46518;48.842;8.926;2023-02-17T13:14:56;97895.81;;;13.50;78.17
1401;BME280;46518;48.842;8.926;2023-02-17T13:17:27;97904.19;;;13.42;79.05
1401;BME280;46518;48.842;8.926;2023-02-17T13:20:03;97891.16;;;13.57;79.43
1401;BME280;46518;48.842;8.926;2023-02-17T13:22:32;97884.97;;;13.68;78.90
1401;BME280;46518;48.842;8.926;2023-02-17T13:25:00;97890.09;;;13.80;79.01
1401;BME280;46518;48.842;8.926;2023-02-17T13:27:33;97888.75;;;13.77;78.43
1401;BME280;46518;48.842;8.926;2023-02-17T13:30:05;97875.91;;;13.86;77.30
1401;BME280;46518;48.842;8.926;2023-02-17T13:32:37;97874.03;;;13.87;77.78
1401;BME280;46518;48.842;8.926;2023-02-17T13:35:16;97882.22;;;14.07;77.56
1401;BME280;46518;48.842;8.926;2023-02-17T13:37:45;97888.94;;;14.20;77.33
1401;BME280;46518;48.842;8.926;2023-02-17T13:40:41;97886.66;;;14.29;75.99
1401;BME280;46518;48.842;8.926;2023-02-17T13:43:14;97884.97;;;14.17;77.02
1401;BME280;46518;48.842;8.926;2023-02-17T13:45:47;97884.22;;;14.22;76.41